LFBC 181230Z AUTO 23010KT 180V260 9999 SCT044 24/11 Q1018 NOSIG
LFBD 181230Z AUTO 30007KT 230V010 CAVOK 26/11 Q1018 NOSIG